sensor_id;sensor_type;location;lat;lon;timestamp;P1;durP1;ratioP1;P2;durP2;ratioP2
6145;SDS011;3104;50.348;7.620;2023-04-25T00:02:24;9.90;;;8.60;;
6145;SDS011;3104;50.348;7.620;2023-04-25T00:04:50;8.93;;;8.03;;
6145;SDS011;3104;50.348;7.620;2023-04-25T00:07:17;9.23;;;7.63;;
6145;SDS011;3104;50.348;7.620;2023-04-25T00:09:42;10.37;;;7.63;;
6145;SDS011;3104;50.348;7.620;2023-04-25T00:12:08;10.87;;;8.63;;
6145;SDS011;3104;50.348;7.620;2023-04-25T00:14:34;7.97;;;7.13;;
6145;SDS011;3104;50.348;7.620;2023-04-25T00:17:00;10.80;;;8.13;;
6145;SDS011;3104;50.348;7.620;2023-04-25T00:19:27;9.33;;;8.43;;
6145;SDS011;3104;50.348;7.620;2023-04-25T00:21:56;9.50;;;8.60;;
6145;SDS011;3104;50.348;7.620;2023-04-25T00:24:22;8.80;;;7.17;;
6145;SDS011;3104;50.348;7.620;2023-04-25T00:26:48;13.67;;;8.67;;
6145;SDS011;3104;50.348;7.620;2023-04-25T00:29:13;8.80;;;6.70;;
6145;SDS011;3104;50.348;7.620;2023-04-25T00:31:39;9.13;;;7.20;;
6145;SDS011;3104;50.348;7.620;2023-04-25T00:34:05;9.20;;;8.30;;
6145;SDS011;3104;50.348;7.620;2023-04-25T00:36:32;11.20;;;7.97;;
6145;SDS011;3104;50.348;7.620;2023-04-25T00:38:57;12.10;;;8.23;;
6145;SDS011;3104;50.348;7.620;2023-04-25T00:41:23;11.80;;;8.80;;
6145;SDS011;3104;50.348;7.620;2023-04-25T00:43:51;9.27;;;8.20;;
6145;SDS011;3104;50.348;7.620;2023-04-25T00:46:18;9.33;;;8.20;;
6145;SDS011;3104;50.348;7.620;2023-04-25T00:48:44;8.47;;;7.77;;
6145;SDS011;3104;50.348;7.620;2023-04-25T00:51:10;9.80;;;7.80;;
6145;SDS011;3104;50.348;7.620;2023-04-25T00:53:41;11.73;;;8.73;;
6145;SDS011;3104;50.348;7.620;2023-04-25T00:56:07;11.50;;;8.83;;
6145;SDS011;3104;50.348;7.620;2023-04-25T00:58:33;9.23;;;8.33;;
6145;SDS011;3104;50.348;7.620;2023-04-25T01:00:59;10.43;;;7.63;;
6145;SDS011;3104;50.348;7.620;2023-04-25T01:03:25;8.60;;;7.13;;
6145;SDS011;3104;50.348;7.620;2023-04-25T01:05:53;8.50;;;7.70;;
6145;SDS011;3104;50.348;7.620;2023-04-25T01:08:19;10.50;;;7.60;;
6145;SDS011;3104;50.348;7.620;2023-04-25T01:10:48;8.10;;;7.30;;
6145;SDS011;3104;50.348;7.620;2023-04-25T01:13:13;7.77;;;7.00;;
6145;SDS011;3104;50.348;7.620;2023-04-25T01:15:39;14.70;;;7.83;;
6145;SDS011;3104;50.348;7.620;2023-04-25T01:18:05;7.50;;;6.70;;
6145;SDS011;3104;50.348;7.620;2023-04-25T01:20:31;9.27;;;7.57;;
6145;SDS011;3104;50.348;7.620;2023-04-25T01:22:58;8.00;;;7.20;;
6145;SDS011;3104;50.348;7.620;2023-04-25T01:25:23;9.70;;;6.83;;
6145;SDS011;3104;50.348;7.620;2023-04-25T01:27:49;11.20;;;6.77;;
6145;SDS011;3104;50.348;7.620;2023-04-25T01:30:15;10.60;;;6.73;;
6145;SDS011;3104;50.348;7.620;2023-04-25T01:32:41;8.83;;;6.53;;
6145;SDS011;3104;50.348;7.620;2023-04-25T01:35:09;7.17;;;6.50;;
6145;SDS011;3104;50.348;7.620;2023-04-25T01:40:02;15.23;;;6.53;;
6145;SDS011;3104;50.348;7.620;2023-04-25T01:42:30;11.37;;;6.10;;
6145;SDS011;3104;50.348;7.620;2023-04-25T01:44:56;9.40;;;6.87;;
6145;SDS011;3104;50.348;7.620;2023-04-25T01:47:22;9.67;;;7.87;;
6145;SDS011;3104;50.348;7.620;2023-04-25T01:49:48;13.13;;;7.37;;
6145;SDS011;3104;50.348;7.620;2023-04-25T01:52:14;10.90;;;6.70;;
6145;SDS011;3104;50.348;7.620;2023-04-25T01:54:40;11.50;;;7.50;;
6145;SDS011;3104;50.348;7.620;2023-04-25T01:57:09;11.00;;;6.93;;
6145;SDS011;3104;50.348;7.620;2023-04-25T01:59:35;8.20;;;7.20;;
6145;SDS011;3104;50.348;7.620;2023-04-25T02:02:01;10.43;;;6.80;;
6145;SDS011;3104;50.348;7.620;2023-04-25T02:04:28;11.47;;;7.30;;
6145;SDS011;3104;50.348;7.620;2023-04-25T02:06:54;9.77;;;8.23;;
6145;SDS011;3104;50.348;7.620;2023-04-25T02:09:20;8.33;;;6.30;;
6145;SDS011;3104;50.348;7.620;2023-04-25T02:11:46;6.50;;;5.90;;
6145;SDS011;3104;50.348;7.620;2023-04-25T02:14:11;7.90;;;6.20;;
6145;SDS011;3104;50.348;7.620;2023-04-25T02:16:37;8.87;;;5.97;;
6145;SDS011;3104;50.348;7.620;2023-04-25T02:19:04;10.10;;;6.40;;
6145;SDS011;3104;50.348;7.620;2023-04-25T02:21:30;7.90;;;6.20;;
6145;SDS011;3104;50.348;7.620;2023-04-25T02:23:57;9.03;;;6.70;;
6145;SDS011;3104;50.348;7.620;2023-04-25T02:26:23;12.30;;;6.73;;
6145;SDS011;3104;50.348;7.620;2023-04-25T02:28:49;7.27;;;6.17;;
6145;SDS011;3104;50.348;7.620;2023-04-25T02:31:15;11.10;;;5.77;;
6145;SDS011;3104;50.348;7.620;2023-04-25T02:33:41;6.80;;;5.70;;
6145;SDS011;3104;50.348;7.620;2023-04-25T02:36:07;10.10;;;6.43;;
6145;SDS011;3104;50.348;7.620;2023-04-25T02:38:32;15.93;;;5.20;;
6145;SDS011;3104;50.348;7.620;2023-04-25T02:40:58;8.70;;;6.17;;
6145;SDS011;3104;50.348;7.620;2023-04-25T02:43:24;8.47;;;6.60;;
6145;SDS011;3104;50.348;7.620;2023-04-25T02:45:49;7.63;;;6.70;;
6145;SDS011;3104;50.348;7.620;2023-04-25T02:48:15;10.90;;;7.67;;
6145;SDS011;3104;50.348;7.620;2023-04-25T02:50:40;9.10;;;6.60;;
6145;SDS011;3104;50.348;7.620;2023-04-25T02:53:06;8.47;;;5.80;;
6145;SDS011;3104;50.348;7.620;2023-04-25T02:55:32;11.27;;;7.20;;
6145;SDS011;3104;50.348;7.620;2023-04-25T02:57:57;11.97;;;6.70;;
6145;SDS011;3104;50.348;7.620;2023-04-25T03:00:23;10.63;;;6.70;;
6145;SDS011;3104;50.348;7.620;2023-04-25T03:02:50;8.03;;;7.27;;
6145;SDS011;3104;50.348;7.620;2023-04-25T03:05:16;7.00;;;6.23;;
6145;SDS011;3104;50.348;7.620;2023-04-25T03:07:42;8.67;;;6.70;;
6145;SDS011;3104;50.348;7.620;2023-04-25T03:10:09;7.73;;;6.73;;
6145;SDS011;3104;50.348;7.620;2023-04-25T03:12:35;8.87;;;6.73;;
6145;SDS011;3104;50.348;7.620;2023-04-25T03:15:01;8.20;;;6.40;;
6145;SDS011;3104;50.348;7.620;2023-04-25T03:17:27;11.50;;;6.40;;
6145;SDS011;3104;50.348;7.620;2023-04-25T03:19:52;10.47;;;6.37;;
6145;SDS011;3104;50.348;7.620;2023-04-25T03:22:18;10.00;;;6.60;;
6145;SDS011;3104;50.348;7.620;2023-04-25T03:24:44;7.57;;;6.10;;
6145;SDS011;3104;50.348;7.620;2023-04-25T03:27:09;10.13;;;6.20;;
6145;SDS011;3104;50.348;7.620;2023-04-25T03:29:35;11.33;;;6.40;;
6145;SDS011;3104;50.348;7.620;2023-04-25T03:32:00;13.80;;;7.33;;
6145;SDS011;3104;50.348;7.620;2023-04-25T03:34:26;7.40;;;5.77;;
6145;SDS011;3104;50.348;7.620;2023-04-25T03:36:52;6.73;;;5.30;;
6145;SDS011;3104;50.348;7.620;2023-04-25T03:39:17;10.70;;;5.43;;
6145;SDS011;3104;50.348;7.620;2023-04-25T03:41:43;10.67;;;7.40;;
6145;SDS011;3104;50.348;7.620;2023-04-25T03:44:08;7.13;;;5.90;;
6145;SDS011;3104;50.348;7.620;2023-04-25T03:46:34;11.40;;;5.90;;
6145;SDS011;3104;50.348;7.620;2023-04-25T03:48:59;9.50;;;5.00;;
6145;SDS011;3104;50.348;7.620;2023-04-25T03:51:25;13.37;;;6.00;;
6145;SDS011;3104;50.348;7.620;2023-04-25T03:53:51;9.10;;;5.67;;
6145;SDS011;3104;50.348;7.620;2023-04-25T03:56:17;15.63;;;6.80;;
6145;SDS011;3104;50.348;7.620;2023-04-25T03:58:43;9.80;;;6.20;;
6145;SDS011;3104;50.348;7.620;2023-04-25T04:01:09;13.20;;;7.10;;
6145;SDS011;3104;50.348;7.620;2023-04-25T04:03:35;13.80;;;6.30;;
6145;SDS011;3104;50.348;7.620;2023-04-25T04:06:04;12.03;;;7.67;;
6145;SDS011;3104;50.348;7.620;2023-04-25T04:08:31;12.43;;;6.30;;
6145;SDS011;3104;50.348;7.620;2023-04-25T04:10:57;12.00;;;6.27;;
6145;SDS011;3104;50.348;7.620;2023-04-25T04:13:25;11.70;;;6.43;;
6145;SDS011;3104;50.348;7.620;2023-04-25T04:15:51;9.20;;;6.30;;
6145;SDS011;3104;50.348;7.620;2023-04-25T04:18:17;9.50;;;5.80;;
6145;SDS011;3104;50.348;7.620;2023-04-25T04:20:42;8.13;;;6.60;;
6145;SDS011;3104;50.348;7.620;2023-04-25T04:23:08;13.90;;;7.40;;
6145;SDS011;3104;50.348;7.620;2023-04-25T04:25:33;8.33;;;5.93;;
6145;SDS011;3104;50.348;7.620;2023-04-25T04:27:59;10.50;;;7.37;;
6145;SDS011;3104;50.348;7.620;2023-04-25T04:30:26;12.00;;;7.80;;
6145;SDS011;3104;50.348;7.620;2023-04-25T04:32:54;9.53;;;8.17;;
6145;SDS011;3104;50.348;7.620;2023-04-25T04:35:20;10.63;;;7.20;;
6145;SDS011;3104;50.348;7.620;2023-04-25T04:37:46;14.50;;;7.30;;
6145;SDS011;3104;50.348;7.620;2023-04-25T04:40:12;12.93;;;6.93;;
6145;SDS011;3104;50.348;7.620;2023-04-25T04:42:40;12.30;;;7.10;;
6145;SDS011;3104;50.348;7.620;2023-04-25T04:45:06;11.40;;;6.90;;
6145;SDS011;3104;50.348;7.620;2023-04-25T04:47:33;9.07;;;7.00;;
6145;SDS011;3104;50.348;7.620;2023-04-25T04:49:59;10.47;;;8.30;;
6145;SDS011;3104;50.348;7.620;2023-04-25T04:52:24;13.23;;;8.13;;
6145;SDS011;3104;50.348;7.620;2023-04-25T04:54:50;10.80;;;9.13;;
6145;SDS011;3104;50.348;7.620;2023-04-25T04:57:15;11.10;;;8.50;;
6145;SDS011;3104;50.348;7.620;2023-04-25T04:59:41;12.13;;;8.17;;
6145;SDS011;3104;50.348;7.620;2023-04-25T05:02:07;13.53;;;8.40;;
6145;SDS011;3104;50.348;7.620;2023-04-25T05:04:33;14.43;;;8.83;;
6145;SDS011;3104;50.348;7.620;2023-04-25T05:06:58;14.47;;;9.07;;
6145;SDS011;3104;50.348;7.620;2023-04-25T05:09:24;13.67;;;8.87;;
6145;SDS011;3104;50.348;7.620;2023-04-25T05:11:51;13.57;;;8.73;;
6145;SDS011;3104;50.348;7.620;2023-04-25T05:14:16;11.20;;;8.70;;
6145;SDS011;3104;50.348;7.620;2023-04-25T05:16:43;17.80;;;8.00;;
6145;SDS011;3104;50.348;7.620;2023-04-25T05:19:09;12.37;;;8.20;;
6145;SDS011;3104;50.348;7.620;2023-04-25T05:21:34;13.37;;;7.27;;
6145;SDS011;3104;50.348;7.620;2023-04-25T05:24:00;12.50;;;7.40;;
6145;SDS011;3104;50.348;7.620;2023-04-25T05:26:26;10.23;;;7.63;;
6145;SDS011;3104;50.348;7.620;2023-04-25T05:28:55;18.20;;;7.57;;
6145;SDS011;3104;50.348;7.620;2023-04-25T05:31:25;12.40;;;8.57;;
6145;SDS011;3104;50.348;7.620;2023-04-25T05:33:50;10.70;;;7.47;;
6145;SDS011;3104;50.348;7.620;2023-04-25T05:36:17;16.30;;;8.97;;
6145;SDS011;3104;50.348;7.620;2023-04-25T05:38:43;16.57;;;7.83;;
6145;SDS011;3104;50.348;7.620;2023-04-25T05:41:09;22.13;;;9.03;;
6145;SDS011;3104;50.348;7.620;2023-04-25T05:43:35;23.43;;;9.80;;
6145;SDS011;3104;50.348;7.620;2023-04-25T05:46:00;11.20;;;8.03;;
6145;SDS011;3104;50.348;7.620;2023-04-25T05:48:26;14.10;;;7.50;;
6145;SDS011;3104;50.348;7.620;2023-04-25T05:50:51;16.63;;;8.13;;
6145;SDS011;3104;50.348;7.620;2023-04-25T05:53:18;11.00;;;7.90;;
6145;SDS011;3104;50.348;7.620;2023-04-25T05:55:44;8.73;;;6.63;;
6145;SDS011;3104;50.348;7.620;2023-04-25T05:58:09;14.33;;;7.83;;
6145;SDS011;3104;50.348;7.620;2023-04-25T06:00:35;10.77;;;6.87;;
6145;SDS011;3104;50.348;7.620;2023-04-25T06:03:01;11.10;;;6.87;;
6145;SDS011;3104;50.348;7.620;2023-04-25T06:05:26;10.40;;;6.90;;
6145;SDS011;3104;50.348;7.620;2023-04-25T06:07:52;17.00;;;7.37;;
6145;SDS011;3104;50.348;7.620;2023-04-25T06:10:18;11.00;;;6.40;;
6145;SDS011;3104;50.348;7.620;2023-04-25T06:12:43;8.33;;;5.60;;
6145;SDS011;3104;50.348;7.620;2023-04-25T06:15:09;9.87;;;6.90;;
6145;SDS011;3104;50.348;7.620;2023-04-25T06:17:35;9.90;;;6.83;;
6145;SDS011;3104;50.348;7.620;2023-04-25T06:20:01;13.07;;;8.20;;
6145;SDS011;3104;50.348;7.620;2023-04-25T06:22:27;13.43;;;9.53;;
6145;SDS011;3104;50.348;7.620;2023-04-25T06:24:52;10.67;;;6.50;;
6145;SDS011;3104;50.348;7.620;2023-04-25T06:27:18;14.67;;;6.93;;
6145;SDS011;3104;50.348;7.620;2023-04-25T06:29:43;13.37;;;7.20;;
6145;SDS011;3104;50.348;7.620;2023-04-25T06:32:09;15.13;;;7.50;;
6145;SDS011;3104;50.348;7.620;2023-04-25T06:34:34;10.77;;;7.20;;
6145;SDS011;3104;50.348;7.620;2023-04-25T06:37:00;13.00;;;7.00;;
6145;SDS011;3104;50.348;7.620;2023-04-25T06:39:25;18.50;;;8.63;;
6145;SDS011;3104;50.348;7.620;2023-04-25T06:41:51;8.63;;;5.83;;
6145;SDS011;3104;50.348;7.620;2023-04-25T06:44:18;10.30;;;6.60;;
6145;SDS011;3104;50.348;7.620;2023-04-25T06:46:43;10.83;;;6.57;;
6145;SDS011;3104;50.348;7.620;2023-04-25T06:49:09;12.17;;;6.10;;
6145;SDS011;3104;50.348;7.620;2023-04-25T06:51:34;10.07;;;7.00;;
6145;SDS011;3104;50.348;7.620;2023-04-25T06:54:00;12.83;;;7.30;;
6145;SDS011;3104;50.348;7.620;2023-04-25T06:56:26;11.60;;;7.07;;
6145;SDS011;3104;50.348;7.620;2023-04-25T06:58:54;9.40;;;6.90;;
6145;SDS011;3104;50.348;7.620;2023-04-25T07:01:20;16.60;;;7.57;;
6145;SDS011;3104;50.348;7.620;2023-04-25T07:03:45;16.10;;;8.03;;
6145;SDS011;3104;50.348;7.620;2023-04-25T07:06:11;9.10;;;6.23;;
6145;SDS011;3104;50.348;7.620;2023-04-25T07:08:36;10.47;;;7.13;;
6145;SDS011;3104;50.348;7.620;2023-04-25T07:11:02;9.63;;;6.87;;
6145;SDS011;3104;50.348;7.620;2023-04-25T07:13:27;15.80;;;7.37;;
6145;SDS011;3104;50.348;7.620;2023-04-25T07:15:53;8.33;;;7.37;;
6145;SDS011;3104;50.348;7.620;2023-04-25T07:18:18;12.47;;;7.30;;
6145;SDS011;3104;50.348;7.620;2023-04-25T07:20:44;8.70;;;7.10;;
6145;SDS011;3104;50.348;7.620;2023-04-25T07:23:10;10.40;;;7.30;;
6145;SDS011;3104;50.348;7.620;2023-04-25T07:25:35;10.90;;;7.70;;
6145;SDS011;3104;50.348;7.620;2023-04-25T07:28:01;10.40;;;6.83;;
6145;SDS011;3104;50.348;7.620;2023-04-25T07:30:27;14.20;;;7.13;;
6145;SDS011;3104;50.348;7.620;2023-04-25T07:32:53;17.57;;;6.70;;
6145;SDS011;3104;50.348;7.620;2023-04-25T07:35:18;10.07;;;7.50;;
6145;SDS011;3104;50.348;7.620;2023-04-25T07:37:44;9.27;;;8.33;;
6145;SDS011;3104;50.348;7.620;2023-04-25T07:40:09;10.13;;;6.90;;
6145;SDS011;3104;50.348;7.620;2023-04-25T07:42:35;8.37;;;7.50;;
6145;SDS011;3104;50.348;7.620;2023-04-25T07:45:01;8.97;;;7.40;;
6145;SDS011;3104;50.348;7.620;2023-04-25T07:47:28;11.53;;;8.60;;
6145;SDS011;3104;50.348;7.620;2023-04-25T07:49:53;9.47;;;6.93;;
6145;SDS011;3104;50.348;7.620;2023-04-25T07:52:19;9.60;;;7.00;;
6145;SDS011;3104;50.348;7.620;2023-04-25T07:54:45;9.37;;;6.17;;
6145;SDS011;3104;50.348;7.620;2023-04-25T07:57:12;13.50;;;7.47;;
6145;SDS011;3104;50.348;7.620;2023-04-25T07:59:38;8.70;;;6.87;;
6145;SDS011;3104;50.348;7.620;2023-04-25T08:02:04;7.40;;;6.60;;
6145;SDS011;3104;50.348;7.620;2023-04-25T08:04:30;9.80;;;6.60;;
6145;SDS011;3104;50.348;7.620;2023-04-25T08:06:56;13.40;;;7.90;;
6145;SDS011;3104;50.348;7.620;2023-04-25T08:09:21;8.10;;;6.07;;
6145;SDS011;3104;50.348;7.620;2023-04-25T08:11:47;9.30;;;8.40;;
6145;SDS011;3104;50.348;7.620;2023-04-25T08:14:13;11.83;;;7.27;;
6145;SDS011;3104;50.348;7.620;2023-04-25T08:16:38;10.57;;;6.60;;
6145;SDS011;3104;50.348;7.620;2023-04-25T08:19:04;10.03;;;7.30;;
6145;SDS011;3104;50.348;7.620;2023-04-25T08:21:30;11.20;;;6.87;;
6145;SDS011;3104;50.348;7.620;2023-04-25T08:23:57;9.57;;;7.40;;
6145;SDS011;3104;50.348;7.620;2023-04-25T08:26:23;12.73;;;7.77;;
6145;SDS011;3104;50.348;7.620;2023-04-25T08:28:49;16.70;;;8.43;;
6145;SDS011;3104;50.348;7.620;2023-04-25T08:31:15;16.10;;;6.90;;
6145;SDS011;3104;50.348;7.620;2023-04-25T08:33:42;6.37;;;5.77;;
6145;SDS011;3104;50.348;7.620;2023-04-25T08:36:08;16.20;;;6.33;;
6145;SDS011;3104;50.348;7.620;2023-04-25T08:38:33;8.03;;;5.83;;
6145;SDS011;3104;50.348;7.620;2023-04-25T08:40:59;9.87;;;5.53;;
6145;SDS011;3104;50.348;7.620;2023-04-25T08:43:26;13.53;;;7.27;;
6145;SDS011;3104;50.348;7.620;2023-04-25T08:45:54;10.70;;;6.80;;
6145;SDS011;3104;50.348;7.620;2023-04-25T08:48:24;14.13;;;10.27;;
6145;SDS011;3104;50.348;7.620;2023-04-25T08:50:52;11.73;;;5.33;;
6145;SDS011;3104;50.348;7.620;2023-04-25T08:53:29;7.63;;;5.50;;
6145;SDS011;3104;50.348;7.620;2023-04-25T08:55:56;14.77;;;6.10;;
6145;SDS011;3104;50.348;7.620;2023-04-25T08:58:24;9.20;;;4.70;;
6145;SDS011;3104;50.348;7.620;2023-04-25T09:00:51;11.27;;;5.67;;
6145;SDS011;3104;50.348;7.620;2023-04-25T09:03:17;12.57;;;6.00;;
6145;SDS011;3104;50.348;7.620;2023-04-25T09:05:43;8.03;;;4.60;;
6145;SDS011;3104;50.348;7.620;2023-04-25T09:08:09;6.07;;;4.30;;
6145;SDS011;3104;50.348;7.620;2023-04-25T09:10:35;10.50;;;6.73;;
6145;SDS011;3104;50.348;7.620;2023-04-25T09:13:02;6.57;;;4.47;;
6145;SDS011;3104;50.348;7.620;2023-04-25T09:15:31;13.00;;;5.57;;
6145;SDS011;3104;50.348;7.620;2023-04-25T09:17:57;10.10;;;7.03;;
6145;SDS011;3104;50.348;7.620;2023-04-25T09:20:23;10.13;;;5.67;;
6145;SDS011;3104;50.348;7.620;2023-04-25T09:22:49;8.10;;;5.47;;
6145;SDS011;3104;50.348;7.620;2023-04-25T09:25:27;7.00;;;5.60;;
6145;SDS011;3104;50.348;7.620;2023-04-25T09:28:03;8.90;;;6.40;;
6145;SDS011;3104;50.348;7.620;2023-04-25T09:30:30;15.77;;;5.83;;
6145;SDS011;3104;50.348;7.620;2023-04-25T09:32:57;7.37;;;4.63;;
6145;SDS011;3104;50.348;7.620;2023-04-25T09:35:29;14.13;;;5.13;;
6145;SDS011;3104;50.348;7.620;2023-04-25T09:37:59;8.63;;;4.97;;
6145;SDS011;3104;50.348;7.620;2023-04-25T09:40:25;9.90;;;4.60;;
6145;SDS011;3104;50.348;7.620;2023-04-25T09:42:51;6.03;;;4.70;;
6145;SDS011;3104;50.348;7.620;2023-04-25T09:45:17;6.47;;;3.80;;
6145;SDS011;3104;50.348;7.620;2023-04-25T09:47:42;9.37;;;3.27;;
6145;SDS011;3104;50.348;7.620;2023-04-25T09:50:14;5.00;;;3.50;;
6145;SDS011;3104;50.348;7.620;2023-04-25T09:52:41;16.60;;;4.70;;
6145;SDS011;3104;50.348;7.620;2023-04-25T09:55:06;10.80;;;3.77;;
6145;SDS011;3104;50.348;7.620;2023-04-25T09:57:32;5.77;;;3.60;;
6145;SDS011;3104;50.348;7.620;2023-04-25T09:59:58;7.43;;;4.00;;
6145;SDS011;3104;50.348;7.620;2023-04-25T10:02:26;6.83;;;4.60;;
6145;SDS011;3104;50.348;7.620;2023-04-25T10:04:55;4.90;;;3.70;;
6145;SDS011;3104;50.348;7.620;2023-04-25T10:07:25;6.60;;;3.50;;
6145;SDS011;3104;50.348;7.620;2023-04-25T10:10:00;7.13;;;4.57;;
6145;SDS011;3104;50.348;7.620;2023-04-25T10:12:28;6.00;;;3.17;;
6145;SDS011;3104;50.348;7.620;2023-04-25T10:14:55;9.07;;;3.67;;
6145;SDS011;3104;50.348;7.620;2023-04-25T10:17:23;7.87;;;4.07;;
6145;SDS011;3104;50.348;7.620;2023-04-25T10:19:48;5.07;;;3.57;;
6145;SDS011;3104;50.348;7.620;2023-04-25T10:22:17;5.00;;;3.80;;
6145;SDS011;3104;50.348;7.620;2023-04-25T10:24:48;6.70;;;4.00;;
6145;SDS011;3104;50.348;7.620;2023-04-25T10:27:15;4.93;;;3.70;;
6145;SDS011;3104;50.348;7.620;2023-04-25T10:29:41;10.97;;;4.60;;
6145;SDS011;3104;50.348;7.620;2023-04-25T10:32:10;5.33;;;4.13;;
6145;SDS011;3104;50.348;7.620;2023-04-25T10:34:39;4.90;;;3.67;;
6145;SDS011;3104;50.348;7.620;2023-04-25T10:37:08;8.93;;;4.30;;
6145;SDS011;3104;50.348;7.620;2023-04-25T10:39:35;7.10;;;4.67;;
6145;SDS011;3104;50.348;7.620;2023-04-25T10:42:04;6.50;;;3.20;;
6145;SDS011;3104;50.348;7.620;2023-04-25T10:44:31;4.20;;;3.20;;
6145;SDS011;3104;50.348;7.620;2023-04-25T10:46:57;8.20;;;3.17;;
6145;SDS011;3104;50.348;7.620;2023-04-25T10:49:34;5.63;;;2.50;;
6145;SDS011;3104;50.348;7.620;2023-04-25T10:54:59;5.70;;;3.10;;
6145;SDS011;3104;50.348;7.620;2023-04-25T11:00:09;7.63;;;2.07;;
6145;SDS011;3104;50.348;7.620;2023-04-25T11:07:56;6.23;;;2.60;;
6145;SDS011;3104;50.348;7.620;2023-04-25T11:10:32;5.93;;;3.40;;
6145;SDS011;3104;50.348;7.620;2023-04-25T11:13:00;7.40;;;3.20;;
6145;SDS011;3104;50.348;7.620;2023-04-25T11:15:26;8.67;;;3.07;;
6145;SDS011;3104;50.348;7.620;2023-04-25T11:17:52;8.47;;;4.07;;
6145;SDS011;3104;50.348;7.620;2023-04-25T11:20:18;4.77;;;2.67;;
6145;SDS011;3104;50.348;7.620;2023-04-25T11:22:44;4.30;;;3.10;;
6145;SDS011;3104;50.348;7.620;2023-04-25T11:25:11;4.47;;;2.70;;
6145;SDS011;3104;50.348;7.620;2023-04-25T11:27:49;3.83;;;2.93;;
6145;SDS011;3104;50.348;7.620;2023-04-25T11:30:19;10.83;;;3.80;;
6145;SDS011;3104;50.348;7.620;2023-04-25T11:32:45;5.17;;;3.67;;
6145;SDS011;3104;50.348;7.620;2023-04-25T11:35:11;5.03;;;3.90;;
6145;SDS011;3104;50.348;7.620;2023-04-25T11:37:41;4.73;;;3.50;;
6145;SDS011;3104;50.348;7.620;2023-04-25T11:40:07;7.60;;;4.03;;
6145;SDS011;3104;50.348;7.620;2023-04-25T11:42:43;9.37;;;3.40;;
6145;SDS011;3104;50.348;7.620;2023-04-25T11:45:09;5.80;;;3.97;;
6145;SDS011;3104;50.348;7.620;2023-04-25T11:47:36;11.03;;;4.73;;
6145;SDS011;3104;50.348;7.620;2023-04-25T11:50:05;8.10;;;4.10;;
6145;SDS011;3104;50.348;7.620;2023-04-25T11:55:01;4.97;;;3.27;;
6145;SDS011;3104;50.348;7.620;2023-04-25T11:57:30;6.73;;;3.03;;
6145;SDS011;3104;50.348;7.620;2023-04-25T12:00:04;6.93;;;4.33;;
6145;SDS011;3104;50.348;7.620;2023-04-25T12:02:41;5.43;;;3.60;;
6145;SDS011;3104;50.348;7.620;2023-04-25T12:05:08;6.33;;;3.37;;
6145;SDS011;3104;50.348;7.620;2023-04-25T12:07:35;9.13;;;4.70;;
6145;SDS011;3104;50.348;7.620;2023-04-25T12:10:08;7.50;;;3.67;;
6145;SDS011;3104;50.348;7.620;2023-04-25T12:12:36;8.83;;;3.77;;
6145;SDS011;3104;50.348;7.620;2023-04-25T12:15:08;10.40;;;3.97;;
6145;SDS011;3104;50.348;7.620;2023-04-25T12:17:47;5.43;;;2.93;;
6145;SDS011;3104;50.348;7.620;2023-04-25T12:20:16;6.37;;;3.03;;
6145;SDS011;3104;50.348;7.620;2023-04-25T12:22:44;5.37;;;4.83;;
6145;SDS011;3104;50.348;7.620;2023-04-25T12:25:12;6.13;;;3.50;;
6145;SDS011;3104;50.348;7.620;2023-04-25T12:27:38;5.50;;;2.43;;
6145;SDS011;3104;50.348;7.620;2023-04-25T12:30:08;4.33;;;2.87;;
6145;SDS011;3104;50.348;7.620;2023-04-25T12:32:34;3.77;;;2.77;;
6145;SDS011;3104;50.348;7.620;2023-04-25T12:34:59;5.40;;;2.80;;
6145;SDS011;3104;50.348;7.620;2023-04-25T12:37:25;7.40;;;2.70;;
6145;SDS011;3104;50.348;7.620;2023-04-25T12:39:51;2.80;;;2.43;;
6145;SDS011;3104;50.348;7.620;2023-04-25T12:42:16;3.80;;;3.00;;
6145;SDS011;3104;50.348;7.620;2023-04-25T12:44:42;3.87;;;2.80;;
6145;SDS011;3104;50.348;7.620;2023-04-25T12:47:07;4.90;;;2.67;;
6145;SDS011;3104;50.348;7.620;2023-04-25T12:49:33;5.63;;;3.00;;
6145;SDS011;3104;50.348;7.620;2023-04-25T12:51:58;3.80;;;2.23;;
6145;SDS011;3104;50.348;7.620;2023-04-25T12:54:24;5.43;;;2.97;;
6145;SDS011;3104;50.348;7.620;2023-04-25T12:56:50;2.97;;;2.70;;
6145;SDS011;3104;50.348;7.620;2023-04-25T12:59:16;3.80;;;2.50;;
6145;SDS011;3104;50.348;7.620;2023-04-25T13:01:42;4.53;;;3.07;;
6145;SDS011;3104;50.348;7.620;2023-04-25T13:04:07;6.00;;;3.00;;
6145;SDS011;3104;50.348;7.620;2023-04-25T13:06:33;5.60;;;3.47;;
6145;SDS011;3104;50.348;7.620;2023-04-25T13:08:58;4.97;;;3.30;;
6145;SDS011;3104;50.348;7.620;2023-04-25T13:11:24;4.07;;;2.70;;
6145;SDS011;3104;50.348;7.620;2023-04-25T13:13:50;9.73;;;3.67;;
6145;SDS011;3104;50.348;7.620;2023-04-25T13:16:15;4.73;;;2.80;;
6145;SDS011;3104;50.348;7.620;2023-04-25T13:18:41;5.77;;;3.03;;
6145;SDS011;3104;50.348;7.620;2023-04-25T13:21:08;5.40;;;3.10;;
6145;SDS011;3104;50.348;7.620;2023-04-25T13:23:35;3.30;;;2.33;;
6145;SDS011;3104;50.348;7.620;2023-04-25T13:26:01;5.07;;;2.70;;
6145;SDS011;3104;50.348;7.620;2023-04-25T13:28:27;12.67;;;2.93;;
6145;SDS011;3104;50.348;7.620;2023-04-25T13:30:52;4.67;;;2.80;;
6145;SDS011;3104;50.348;7.620;2023-04-25T13:33:19;4.23;;;2.70;;
6145;SDS011;3104;50.348;7.620;2023-04-25T13:35:45;7.97;;;3.47;;
6145;SDS011;3104;50.348;7.620;2023-04-25T13:38:18;4.03;;;2.20;;
6145;SDS011;3104;50.348;7.620;2023-04-25T13:40:48;5.00;;;3.33;;
6145;SDS011;3104;50.348;7.620;2023-04-25T13:43:15;7.83;;;3.10;;
6145;SDS011;3104;50.348;7.620;2023-04-25T13:45:41;4.70;;;2.37;;
6145;SDS011;3104;50.348;7.620;2023-04-25T13:48:06;2.73;;;2.10;;
6145;SDS011;3104;50.348;7.620;2023-04-25T13:50:32;5.07;;;3.30;;
6145;SDS011;3104;50.348;7.620;2023-04-25T13:52:57;4.10;;;2.67;;
6145;SDS011;3104;50.348;7.620;2023-04-25T13:55:23;6.77;;;2.73;;
6145;SDS011;3104;50.348;7.620;2023-04-25T13:57:49;5.27;;;2.73;;
6145;SDS011;3104;50.348;7.620;2023-04-25T14:00:15;4.97;;;2.80;;
6145;SDS011;3104;50.348;7.620;2023-04-25T14:02:41;3.43;;;2.87;;
6145;SDS011;3104;50.348;7.620;2023-04-25T14:05:06;11.37;;;2.93;;
6145;SDS011;3104;50.348;7.620;2023-04-25T14:07:36;4.27;;;2.63;;
6145;SDS011;3104;50.348;7.620;2023-04-25T14:10:03;8.77;;;3.20;;
6145;SDS011;3104;50.348;7.620;2023-04-25T14:12:30;2.70;;;2.33;;
6145;SDS011;3104;50.348;7.620;2023-04-25T14:14:56;4.37;;;2.50;;
6145;SDS011;3104;50.348;7.620;2023-04-25T14:17:21;6.63;;;2.90;;
6145;SDS011;3104;50.348;7.620;2023-04-25T14:19:49;4.60;;;3.07;;
6145;SDS011;3104;50.348;7.620;2023-04-25T14:22:15;5.13;;;2.70;;
6145;SDS011;3104;50.348;7.620;2023-04-25T14:24:40;4.87;;;2.73;;
6145;SDS011;3104;50.348;7.620;2023-04-25T14:27:06;5.50;;;3.07;;
6145;SDS011;3104;50.348;7.620;2023-04-25T14:29:32;4.93;;;2.90;;
6145;SDS011;3104;50.348;7.620;2023-04-25T14:31:58;4.77;;;2.93;;
6145;SDS011;3104;50.348;7.620;2023-04-25T14:34:24;6.40;;;2.60;;
6145;SDS011;3104;50.348;7.620;2023-04-25T14:36:50;7.40;;;2.43;;
6145;SDS011;3104;50.348;7.620;2023-04-25T14:39:16;2.73;;;2.40;;
6145;SDS011;3104;50.348;7.620;2023-04-25T14:41:42;6.93;;;3.33;;
6145;SDS011;3104;50.348;7.620;2023-04-25T14:44:07;6.97;;;2.80;;
6145;SDS011;3104;50.348;7.620;2023-04-25T14:46:33;5.73;;;2.93;;
6145;SDS011;3104;50.348;7.620;2023-04-25T14:48:59;7.70;;;2.90;;
6145;SDS011;3104;50.348;7.620;2023-04-25T14:51:25;4.10;;;2.80;;
6145;SDS011;3104;50.348;7.620;2023-04-25T14:53:51;9.10;;;2.50;;
6145;SDS011;3104;50.348;7.620;2023-04-25T14:56:17;3.57;;;2.30;;
6145;SDS011;3104;50.348;7.620;2023-04-25T14:58:43;5.90;;;3.00;;
6145;SDS011;3104;50.348;7.620;2023-04-25T15:01:10;4.40;;;2.30;;
6145;SDS011;3104;50.348;7.620;2023-04-25T15:03:36;6.20;;;2.57;;
6145;SDS011;3104;50.348;7.620;2023-04-25T15:06:01;5.23;;;2.87;;
6145;SDS011;3104;50.348;7.620;2023-04-25T15:08:27;3.83;;;2.73;;
6145;SDS011;3104;50.348;7.620;2023-04-25T15:10:53;6.00;;;2.60;;
6145;SDS011;3104;50.348;7.620;2023-04-25T15:13:18;5.83;;;2.57;;
6145;SDS011;3104;50.348;7.620;2023-04-25T15:15:44;4.90;;;2.60;;
6145;SDS011;3104;50.348;7.620;2023-04-25T15:18:15;3.70;;;3.07;;
6145;SDS011;3104;50.348;7.620;2023-04-25T15:20:48;6.67;;;3.70;;
6145;SDS011;3104;50.348;7.620;2023-04-25T15:23:15;5.27;;;2.40;;